Terminal Aerodrome Forecast
Issued by NWS Sioux Falls, SD

Home | Current Version | Previous Version | Text Only | Print | Product List | Glossary Off
Versions: 1 2 3 4 5 6 7 8 9 10 11 12 13 14

000
FTUS43 KFSD 011510 AAA
TAFFSD
TAF AMD
KFSD 011510Z 0115/0212 25009KT P6SM SCT012 SCT250
      TEMPO 0115/0116 BKN012
     FM011600 30008KT P6SM SCT250
     FM020200 VRB03KT P6SM SKC=

USA.gov is the U.S. government's official web portal to all federal, state and local government web resources and services.